Time;durP1;ratioP1;P1;durP2;ratioP2;P2;SDS_P1;SDS_P2;PMS_P1;PMS_P2;Temp;Humidity;BMP_temperature;BMP_pressure;BME280_temperature;BME280_humidity;BME280_pressure;Samples;Min_cycle;Max_cycle;Signal;HPM_P1;HPM_P2
2022/09/03 00:00:36;;;;;;;18.67;15.48;;;;;;;30.50;72.76;97919.63;4876620;29;20124;-69
2022/09/03 00:03:27;;;;;;;24.23;15.98;;;;;;;30.58;71.95;97923.34;4867581;29;20433;-69
2022/09/03 00:06:24;;;;;;;31.60;17.23;;;;;;;30.70;71.75;97919.59;4869608;29;20054;-69
2022/09/03 00:09:38;;;;;;;21.35;16.33;;;;;;;30.81;71.83;97920.59;4867240;29;20501;-69
2022/09/03 00:12:38;;;;;;;20.42;15.07;;;;;;;30.66;72.22;97929.81;4869967;29;20049;-69
2022/09/03 00:15:37;;;;;;;23.77;15.45;;;;;;;30.70;71.68;97934.22;4868813;29;20045;-69
2022/09/03 00:18:18;;;;;;;19.92;15.13;;;;;;;30.68;72.08;97933.00;4867247;29;20052;-69
2022/09/03 00:21:32;;;;;;;25.65;15.15;;;;;;;30.53;72.50;97929.16;4867734;29;20607;-68
2022/09/03 00:24:32;;;;;;;22.08;15.13;;;;;;;30.41;72.75;97933.69;4871650;29;20052;-69
2022/09/03 00:27:25;;;;;;;24.20;14.45;;;;;;;30.55;72.08;97933.16;4867140;29;20049;-68
2022/09/03 00:30:23;;;;;;;21.27;15.50;;;;;;;30.48;73.29;97933.03;4869220;29;20565;-68
2022/09/03 00:33:12;;;;;;;21.67;14.32;;;;;;;30.50;72.33;97941.78;4871467;29;20462;-68
2022/09/03 00:36:10;;;;;;;20.55;14.85;;;;;;;30.57;72.52;97941.09;4874140;29;20136;-69
2022/09/03 00:38:59;;;;;;;21.15;15.05;;;;;;;30.58;71.99;97940.75;4878609;29;20443;-69
2022/09/03 00:41:58;;;;;;;27.90;14.73;;;;;;;30.16;73.34;97954.47;4878883;29;20069;-69
2022/09/03 00:45:02;;;;;;;21.40;15.95;;;;;;;30.10;73.82;97956.72;4884747;29;20060;-69
2022/09/03 00:48:08;;;;;;;19.55;15.30;;;;;;;30.42;72.85;97943.59;4883502;29;20119;-69
2022/09/03 00:51:29;;;;;;;22.33;15.10;;;;;;;30.43;73.20;97952.69;4877782;29;20073;-69
2022/09/03 00:54:47;;;;;;;19.98;14.88;;;;;;;30.23;73.80;97951.88;4858070;29;20049;-69
2022/09/03 00:58:02;;;;;;;22.92;14.50;;;;;;;30.42;73.03;97953.84;4869921;29;20370;-69
2022/09/03 01:00:52;;;;;;;25.58;15.10;;;;;;;30.31;73.70;97956.38;4872653;29;20589;-69
2022/09/03 01:03:58;;;;;;;23.10;15.50;;;;;;;30.08;73.93;97974.84;4872072;29;20354;-69
2022/09/03 01:06:57;;;;;;;20.95;15.40;;;;;;;30.24;73.90;97976.41;4873952;29;20053;-69
2022/09/03 01:10:15;;;;;;;21.38;15.15;;;;;;;30.30;73.66;97974.16;4871649;29;20153;-69
2022/09/03 01:13:27;;;;;;;20.33;14.95;;;;;;;30.42;73.79;97981.53;4873153;29;20114;-69
2022/09/03 01:16:33;;;;;;;24.23;16.75;;;;;;;29.97;74.70;97985.69;4873605;29;20045;-69
2022/09/03 01:19:26;;;;;;;20.65;15.70;;;;;;;30.16;74.22;97994.03;4872197;29;20056;-68
2022/09/03 01:22:24;;;;;;;24.50;14.93;;;;;;;30.30;73.45;97987.19;4881433;29;20049;-69
2022/09/03 01:25:30;;;;;;;25.40;15.98;;;;;;;29.45;76.11;97988.41;4874966;29;20057;-68
2022/09/03 01:28:39;;;;;;;25.42;16.33;;;;;;;29.96;74.92;97997.91;4868674;29;20045;-69
2022/09/03 01:31:14;;;;;;;18.63;15.52;;;;;;;30.25;74.11;97997.41;4871186;29;20053;-68
2022/09/03 01:34:47;;;;;;;21.88;15.23;;;;;;;30.65;72.84;97992.72;4871965;29;20049;-68
2022/09/03 01:37:43;;;;;;;26.42;16.58;;;;;;;30.67;72.76;98003.41;4857177;29;20053;-68
2022/09/03 01:40:57;;;;;;;22.87;18.20;;;;;;;30.36;73.30;98019.00;4874257;29;20056;-69
2022/09/03 01:44:02;;;;;;;26.73;16.25;;;;;;;30.38;73.73;98013.88;4883830;29;20036;-69
2022/09/03 01:47:18;;;;;;;24.00;15.85;;;;;;;30.55;73.46;98020.97;4874109;29;20498;-69
2022/09/03 01:50:16;;;;;;;23.52;16.92;;;;;;;30.51;73.09;98020.09;4872824;29;20628;-66
2022/09/03 01:53:15;;;;;;;21.52;16.05;;;;;;;30.41;73.86;98008.44;4870298;29;20057;-70
2022/09/03 01:56:24;;;;;;;20.38;16.08;;;;;;;30.80;73.29;98010.38;4880099;29;20040;-69
2022/09/03 01:59:20;;;;;;;29.77;17.17;;;;;;;30.91;72.17;98011.44;4874684;29;20117;-69
2022/09/03 02:02:22;;;;;;;22.23;16.77;;;;;;;30.76;72.81;98010.31;4883591;29;20056;-69
2022/09/03 02:05:23;;;;;;;23.95;17.90;;;;;;;31.10;72.28;98026.44;4882954;29;20553;-69
2022/09/03 02:08:16;;;;;;;26.13;16.50;;;;;;;31.23;71.68;98012.03;4878584;29;20103;-70
2022/09/03 02:11:08;;;;;;;30.23;18.90;;;;;;;31.14;72.02;98019.00;4873145;29;20460;-69
2022/09/03 02:13:56;;;;;;;28.75;17.98;;;;;;;31.14;72.30;98021.75;4871909;29;20490;-70
2022/09/03 02:16:45;;;;;;;30.83;19.40;;;;;;;31.37;71.10;98014.25;4867961;29;20044;-69
2022/09/03 02:19:28;;;;;;;27.30;18.98;;;;;;;31.69;71.09;98021.56;4872913;29;20142;-69
2022/09/03 02:22:17;;;;;;;29.30;21.27;;;;;;;31.68;70.03;98015.22;4870276;29;20059;-70
2022/09/03 02:25:14;;;;;;;33.47;21.60;;;;;;;31.80;70.05;98016.97;4875137;29;20125;-71
2022/09/03 02:28:13;;;;;;;38.55;21.88;;;;;;;31.48;70.26;98016.47;4861521;29;20045;-70
2022/09/03 02:31:03;;;;;;;30.73;21.85;;;;;;;31.65;70.03;98015.94;4898349;29;20039;-69
2022/09/03 02:33:50;;;;;;;35.22;22.42;;;;;;;31.76;70.74;98010.59;4891975;29;20139;-69
2022/09/03 02:36:44;;;;;;;32.85;23.50;;;;;;;31.66;70.35;98020.31;4887443;29;20155;-69
2022/09/03 02:39:27;;;;;;;36.45;23.50;;;;;;;31.80;70.65;98020.53;4890183;29;20048;-69
2022/09/03 02:42:19;;;;;;;37.05;23.77;;;;;;;32.21;69.63;98019.19;4885665;29;20052;-69
2022/09/03 02:45:25;;;;;;;40.28;23.98;;;;;;;32.30;69.16;98017.72;4890028;29;20055;-68
2022/09/03 02:48:09;;;;;;;30.25;22.08;;;;;;;32.55;68.60;98012.50;4887570;29;20123;-69
2022/09/03 02:50:58;;;;;;;41.50;23.08;;;;;;;32.01;69.29;98016.50;4888659;29;20045;-70
2022/09/03 02:53:40;;;;;;;40.80;24.75;;;;;;;32.57;67.31;98014.94;4889677;29;20044;-70
2022/09/03 02:56:31;;;;;;;31.20;20.80;;;;;;;32.41;66.56;98012.34;4890804;29;20370;-69
2022/09/03 02:59:44;;;;;;;;;;;;;;;32.50;64.51;98015.63;4890792;29;20056;-70
2022/09/03 03:02:34;;;;;;;37.15;22.17;;;;;;;32.87;65.28;98016.88;4895374;29;19927;-69
2022/09/03 03:05:41;;;;;;;39.25;22.75;;;;;;;32.82;64.95;98028.34;4889606;29;20045;-69
2022/09/03 03:08:33;;;;;;;37.38;23.27;;;;;;;32.90;63.81;98033.59;4888427;29;20108;-70
2022/09/03 03:11:17;;;;;;;42.53;21.70;;;;;;;32.31;64.51;98026.84;4888778;29;20043;-69
2022/09/03 03:14:06;;;;;;;40.40;21.83;;;;;;;32.88;63.41;98026.81;4890547;29;20056;-70
2022/09/03 03:16:50;;;;;;;34.28;21.80;;;;;;;32.69;63.08;98023.00;4896076;29;20052;-69
2022/09/03 03:19:39;;;;;;;37.83;21.95;;;;;;;32.90;64.28;98033.59;4900710;29;20056;-69
2022/09/03 03:22:21;;;;;;;42.63;22.65;;;;;;;33.13;62.71;98021.56;4900776;29;20048;-68
2022/09/03 03:25:10;;;;;;;35.25;21.73;;;;;;;32.60;64.19;98021.72;4893593;29;20119;-69
2022/09/03 03:28:02;;;;;;;41.63;22.65;;;;;;;33.23;64.05;98025.63;4882324;29;20037;-69
2022/09/03 03:30:57;;;;;;;39.95;18.67;;;;;;;33.09;61.93;98026.25;4872898;29;20485;-69
2022/09/03 03:33:33;;;;;;;39.03;19.48;;;;;;;33.48;60.98;98028.66;4867670;29;20140;-69
2022/09/03 03:36:30;;;;;;;33.90;16.98;;;;;;;33.71;59.71;98031.28;4870835;29;20049;-70
2022/09/03 03:39:05;;;;;;;39.97;17.90;;;;;;;33.88;59.95;98029.78;4870314;29;20156;-70
2022/09/03 03:42:02;;;;;;;39.55;18.17;;;;;;;33.74;58.16;98036.88;4871383;29;20147;-70
2022/09/03 03:44:37;;;;;;;35.50;18.65;;;;;;;33.77;60.75;98035.28;4870085;29;20041;-70
2022/09/03 03:47:32;;;;;;;53.10;19.65;;;;;;;33.86;58.98;98034.94;4871036;29;20473;-70
2022/09/03 03:50:08;;;;;;;29.38;19.85;;;;;;;33.86;59.89;98037.72;4874836;29;20060;-68
2022/09/03 03:53:06;;;;;;;34.95;18.05;;;;;;;33.91;55.49;98034.59;4874682;29;20053;-69
2022/09/03 03:55:41;;;;;;;32.45;17.27;;;;;;;34.17;56.78;98035.59;4881794;29;20064;-68
2022/09/03 03:58:37;;;;;;;31.30;17.15;;;;;;;33.99;57.81;98036.22;4868727;29;20044;-69
2022/09/03 04:01:21;;;;;;;33.78;17.55;;;;;;;33.87;56.28;98037.34;4869147;29;20065;-69
2022/09/03 04:04:17;;;;;;;39.80;16.33;;;;;;;34.16;57.38;98039.56;4881670;29;20507;-70
2022/09/03 04:06:52;;;;;;;31.67;17.08;;;;;;;34.32;57.77;98037.28;4850498;29;20055;-70
2022/09/03 04:09:48;;;;;;;27.33;16.48;;;;;;;34.28;56.71;98033.66;4880828;29;20072;-70
2022/09/03 04:12:23;;;;;;;35.65;17.38;;;;;;;34.52;55.59;98041.34;4880509;29;20492;-69
2022/09/03 04:15:12;;;;;;;30.38;19.15;;;;;;;34.66;54.22;98037.03;4885825;29;20535;-69
2022/09/03 04:17:54;;;;;;;31.23;16.05;;;;;;;34.67;56.56;98035.88;4881252;29;20049;-69
2022/09/03 04:20:43;;;;;;;41.08;16.48;;;;;;;34.87;54.49;98031.59;4883002;29;20136;-71
2022/09/03 04:23:25;;;;;;;30.92;15.77;;;;;;;34.88;52.43;98033.16;4874875;29;20117;-70
2022/09/03 04:26:23;;;;;;;30.27;13.57;;;;;;;35.06;53.70;98035.22;4875862;29;20756;-69
2022/09/03 04:29:20;;;;;;;21.73;9.38;;;;;;;34.97;53.23;98032.00;4877341;29;20071;-68
2022/09/03 04:35:04;;;;;;;23.77;8.43;;;;;;;35.49;50.10;98029.75;4894149;29;20116;-70
2022/09/03 04:37:54;;;;;;;17.48;8.30;;;;;;;36.02;51.60;98025.34;4894317;29;20080;-70
2022/09/03 04:40:37;;;;;;;15.23;8.48;;;;;;;36.29;48.93;98031.31;4894525;29;20055;-71
2022/09/03 04:43:26;;;;;;;16.73;6.72;;;;;;;36.29;48.21;98024.91;4893887;29;20055;-71
2022/09/03 04:46:09;;;;;;;19.63;7.00;;;;;;;36.31;47.68;98023.34;4894505;29;20135;-70
2022/09/03 04:49:01;;;;;;;18.33;5.60;;;;;;;36.88;47.29;98027.13;4894087;29;20131;-71
2022/09/03 04:51:43;;;;;;;12.65;6.70;;;;;;;37.31;46.19;98026.91;4878741;29;20048;-70
2022/09/03 04:54:32;;;;;;;18.33;6.38;;;;;;;37.16;47.25;98032.59;4879388;29;20056;-69
2022/09/03 04:57:13;;;;;;;19.08;6.55;;;;;;;37.64;44.09;98025.47;4893596;29;20059;-69
2022/09/03 05:00:03;;;;;;;16.90;7.55;;;;;;;37.71;44.32;98025.41;4893832;29;20053;-70
2022/09/03 05:02:50;;;;;;;16.77;6.35;;;;;;;37.68;45.40;98025.44;4892809;29;20135;-71
2022/09/03 05:05:40;;;;;;;19.60;6.88;;;;;;;37.77;46.32;98020.16;4893623;29;20045;-71
2022/09/03 05:08:21;;;;;;;;;;;;;;;37.74;44.61;98026.59;4893976;29;20726;-70
2022/09/03 05:11:12;;;;;;;15.20;5.88;;;;;;;37.65;44.12;98023.50;4893395;29;20647;-70
2022/09/03 05:13:56;;;;;;;20.75;6.22;;;;;;;38.22;46.72;98022.97;4893975;29;20369;-70
2022/09/03 05:16:45;;;;;;;14.55;6.20;;;;;;;37.92;44.71;98015.25;4902257;29;20052;-70
2022/09/03 05:19:33;;;;;;;14.60;5.90;;;;;;;37.44;43.25;98013.22;4911611;29;20048;-69
2022/09/03 05:22:22;;;;;;;19.15;6.18;;;;;;;37.25;45.68;98014.56;4893761;29;20627;-70
2022/09/03 05:25:11;;;;;;;26.88;8.48;;;;;;;37.40;46.86;98007.66;4892978;29;20056;-71
2022/09/03 05:27:59;;;;;;;18.70;7.20;;;;;;;37.83;44.62;98007.31;4876191;29;20157;-72
2022/09/03 05:31:05;;;;;;;15.48;7.07;;;;;;;37.75;46.69;98011.38;4874221;29;20048;-71
2022/09/03 05:33:49;;;;;;;16.77;6.82;;;;;;;37.61;47.70;98001.91;4856992;29;20046;-72
2022/09/03 05:36:45;;;;;;;22.63;7.57;;;;;;;37.77;46.04;97992.97;4893427;29;20060;-72
2022/09/03 05:39:20;;;;;;;15.15;7.35;;;;;;;37.63;47.72;97992.31;4892594;29;20406;-73
2022/09/03 05:42:15;;;;;;;15.82;7.15;;;;;;;38.19;47.48;97992.97;4893065;29;20136;-71
2022/09/03 05:44:51;;;;;;;24.90;7.35;;;;;;;37.69;46.17;97991.44;4893630;29;20040;-71
2022/09/03 05:47:46;;;;;;;17.75;6.60;;;;;;;37.77;47.90;97994.97;4893026;29;20052;-72
2022/09/03 05:50:21;;;;;;;15.88;7.28;;;;;;;38.28;45.40;97993.28;4885931;29;20157;-72
2022/09/03 05:53:17;;;;;;;19.83;6.55;;;;;;;37.95;43.61;97991.97;4873561;29;20063;-70
2022/09/03 05:55:57;;;;;;;16.73;6.95;;;;;;;38.20;44.43;97988.97;4875027;29;20376;-72
2022/09/03 05:58:55;;;;;;;13.82;7.25;;;;;;;38.25;44.24;97982.09;4874067;29;20156;-72
2022/09/03 06:01:36;;;;;;;33.72;9.40;;;;;;;38.27;43.55;97983.25;4875487;29;20101;-72
2022/09/03 06:04:38;;;;;;;21.95;7.75;;;;;;;38.61;44.37;97982.47;4885530;29;20045;-72
2022/09/03 06:07:27;;;;;;;25.63;7.43;;;;;;;38.57;43.60;97976.13;4876617;29;20049;-72
2022/09/03 06:10:11;;;;;;;18.88;7.97;;;;;;;38.58;41.97;97969.28;4873470;29;20049;-71
2022/09/03 06:13:12;;;;;;;13.23;5.75;;;;;;;38.03;43.71;97959.09;4856908;29;20045;-73
2022/09/03 06:15:47;;;;;;;16.73;6.88;;;;;;;37.59;45.01;97967.91;4873643;29;20155;-74
2022/09/03 06:18:43;;;;;;;18.23;7.32;;;;;;;37.76;45.07;97962.59;4873825;29;20140;-72
2022/09/03 06:21:19;;;;;;;20.02;9.02;;;;;;;37.98;45.08;97961.13;4873010;29;20098;-73
2022/09/03 06:24:17;;;;;;;17.40;7.85;;;;;;;38.14;43.82;97962.59;4879713;29;20053;-71
2022/09/03 06:26:53;;;;;;;23.80;9.35;;;;;;;38.44;43.82;97963.84;4872006;29;20064;-74
2022/09/03 06:29:49;;;;;;;22.10;6.72;;;;;;;38.49;46.12;97961.38;4875579;29;20132;-73
2022/09/03 06:32:49;;;;;;;16.65;6.40;;;;;;;38.90;42.78;97959.66;4874638;29;20057;-73
2022/09/03 06:35:38;;;;;;;18.45;6.30;;;;;;;38.53;44.91;97950.13;4872599;29;20422;-72
2022/09/03 06:38:24;;;;;;;18.33;5.70;;;;;;;38.61;44.09;97943.22;4873057;29;20148;-72
2022/09/03 06:41:20;;;;;;;11.48;5.22;;;;;;;38.47;44.79;97937.81;4873026;29;20049;-72
2022/09/03 06:44:05;;;;;;;17.42;5.55;;;;;;;38.48;43.10;97933.75;4867428;29;20558;-71
2022/09/03 06:46:54;;;;;;;15.75;6.53;;;;;;;38.08;44.15;97942.66;4872342;29;20072;-73
2022/09/03 06:49:49;;;;;;;16.65;5.10;;;;;;;38.50;42.55;97936.94;4872735;29;20433;-72
2022/09/03 06:52:38;;;;;;;14.18;4.88;;;;;;;38.56;43.27;97933.28;4873393;29;20057;-74
2022/09/03 06:55:28;;;;;;;12.68;5.32;;;;;;;38.33;43.84;97933.97;4869253;29;20060;-75
2022/09/03 06:58:10;;;;;;;14.50;4.75;;;;;;;38.05;42.91;97928.69;4872879;29;20418;-71
2022/09/03 07:00:59;;;;;;;14.90;4.18;;;;;;;38.22;43.58;97926.88;4872870;29;20056;-72
2022/09/03 07:03:43;;;;;;;15.02;4.25;;;;;;;38.70;40.42;97923.09;4887883;29;20063;-70
2022/09/03 07:06:35;;;;;;;22.90;6.20;;;;;;;38.81;41.34;97922.91;4890122;29;20096;-69
2022/09/03 07:09:18;;;;;;;14.30;4.97;;;;;;;38.68;43.67;97914.31;4890337;29;20055;-74
2022/09/03 07:12:09;;;;;;;18.02;5.68;;;;;;;37.89;44.20;97910.44;4887450;29;20116;-72
2022/09/03 07:14:59;;;;;;;20.95;5.65;;;;;;;38.51;43.22;97907.69;4869421;29;20068;-70
2022/09/03 07:17:41;;;;;;;19.33;4.47;;;;;;;38.35;42.09;97911.09;4869889;29;20059;-71
2022/09/03 07:20:30;;;;;;;13.15;4.57;;;;;;;38.30;42.56;97906.75;4869773;29;20477;-70
2022/09/03 07:23:19;;;;;;;17.20;6.03;;;;;;;38.45;42.15;97895.38;4868522;29;20056;-72
2022/09/03 07:26:07;;;;;;;19.50;5.90;;;;;;;38.42;44.43;97893.41;4880554;29;20080;-72
2022/09/03 07:28:57;;;;;;;135.98;13.93;;;;;;;38.53;45.16;97885.66;4885583;29;20057;-73
2022/09/03 07:31:55;;;;;;;12.77;5.63;;;;;;;38.60;42.84;97882.78;4872471;29;20519;-70
2022/09/03 07:34:30;;;;;;;19.77;5.82;;;;;;;38.58;43.20;97876.78;4887715;29;20060;-71
2022/09/03 07:37:20;;;;;;;16.85;5.53;;;;;;;38.37;43.88;97875.03;4877922;29;20156;-75
2022/09/03 07:40:09;;;;;;;11.38;5.18;;;;;;;38.58;42.27;97873.97;4864335;29;20044;-73
2022/09/03 07:43:03;;;;;;;19.27;5.70;;;;;;;38.47;43.82;97867.72;4867585;29;20049;-73
2022/09/03 07:45:56;;;;;;;21.08;7.10;;;;;;;38.81;42.87;97864.03;4838209;29;20059;-72
2022/09/03 07:48:40;;;;;;;12.68;4.90;;;;;;;38.50;42.72;97859.22;4869325;29;20606;-73
2022/09/03 07:51:32;;;;;;;19.53;4.57;;;;;;;37.89;42.83;97865.63;4528090;29;9999786;-69
2022/09/03 07:54:14;;;;;;;10.15;4.15;;;;;;;38.00;43.09;97857.06;4865967;29;20048;-72
2022/09/03 07:57:03;;;;;;;14.43;4.30;;;;;;;38.22;42.74;97854.03;4866922;29;20041;-72
2022/09/03 07:59:46;;;;;;;18.98;5.35;;;;;;;38.68;42.29;97847.00;4865891;29;20056;-71
2022/09/03 08:02:44;;;;;;;12.70;4.43;;;;;;;38.60;44.30;97843.53;4846918;29;20045;-70
2022/09/03 08:05:36;;;;;;;16.35;4.43;;;;;;;38.64;42.21;97843.44;4846927;29;20064;-70
2022/09/03 08:08:24;;;;;;;15.13;5.22;;;;;;;38.23;41.12;97839.59;4848033;29;20231;-72
2022/09/03 08:11:20;;;;;;;10.82;4.38;;;;;;;38.14;42.79;97830.91;4863280;29;20121;-71
2022/09/03 08:14:13;;;;;;;14.18;4.53;;;;;;;38.32;43.62;97825.06;4867104;29;20052;-70
2022/09/03 08:17:08;;;;;;;12.18;4.40;;;;;;;38.44;41.27;97820.91;4871272;29;20113;-74
2022/09/03 08:19:44;;;;;;;15.57;3.97;;;;;;;38.14;40.93;97814.09;4873916;29;20041;-73
2022/09/03 08:22:34;;;;;;;14.82;3.80;;;;;;;37.92;44.42;97814.34;4880600;29;20120;-71
2022/09/03 08:25:16;;;;;;;9.18;4.03;;;;;;;38.34;41.93;97805.81;4869981;29;20140;-73
2022/09/03 08:28:05;;;;;;;10.95;4.18;;;;;;;38.15;40.40;97810.09;4867389;29;20048;-72
2022/09/03 08:30:54;;;;;;;12.65;3.90;;;;;;;38.27;41.63;97801.09;4868052;29;20144;-76
2022/09/03 08:33:53;;;;;;;12.75;4.38;;;;;;;38.38;41.46;97789.75;4872521;29;20049;-72
2022/09/03 08:36:30;;;;;;;18.50;5.03;;;;;;;38.03;44.70;97786.22;4876644;29;20648;-74
2022/09/03 08:39:25;;;;;;;10.77;4.22;;;;;;;37.56;42.30;97781.16;4882587;29;20733;-70
2022/09/03 08:42:18;;;;;;;14.25;3.83;;;;;;;37.93;43.24;97773.94;4891347;29;20095;-73
2022/09/03 08:45:15;;;;;;;17.65;3.63;;;;;;;37.90;44.21;97771.97;4890012;29;20044;-69
2022/09/03 08:48:18;;;;;;;11.70;4.70;;;;;;;37.98;42.38;97767.06;4890570;29;20504;-74
2022/09/03 08:51:08;;;;;;;14.23;3.58;;;;;;;37.81;43.41;97757.69;4878874;29;20045;-74
2022/09/03 08:53:59;;;;;;;16.33;4.20;;;;;;;36.94;42.23;97749.44;4872238;29;20133;-73
2022/09/03 08:56:43;;;;;;;14.07;4.43;;;;;;;37.54;46.57;97749.22;4871786;29;20060;-73
2022/09/03 08:59:32;;;;;;;14.77;4.18;;;;;;;37.80;41.46;97750.53;4874128;29;20073;-73
2022/09/03 09:02:24;;;;;;;8.43;3.55;;;;;;;37.91;43.69;97739.16;4875786;29;20132;-71
2022/09/03 09:05:23;;;;;;;15.32;3.85;;;;;;;37.50;43.00;97732.47;4873369;29;20537;-71
2022/09/03 09:08:41;;;;;;;12.68;4.05;;;;;;;37.72;41.04;97726.59;4869380;29;20105;-72
2022/09/03 09:11:46;;;;;;;23.80;3.83;;;;;;;37.66;41.38;97733.88;4871707;29;20063;-73
2022/09/03 09:14:42;;;;;;;9.00;3.42;;;;;;;37.78;41.39;97719.34;4855625;29;20065;-72
2022/09/03 09:17:38;;;;;;;11.18;4.00;;;;;;;37.76;38.69;97708.56;4856102;29;20061;-72
2022/09/03 09:20:59;;;;;;;9.57;3.88;;;;;;;37.91;40.23;97697.97;4855245;29;20057;-73
2022/09/03 09:23:45;;;;;;;15.00;3.88;;;;;;;37.58;41.57;97703.16;4856517;29;20550;-73
2022/09/03 09:26:34;;;;;;;7.95;3.35;;;;;;;36.77;40.73;97702.88;4882124;29;20109;-72
2022/09/03 09:29:19;;;;;;;11.60;3.88;;;;;;;37.16;41.78;97680.09;4877797;29;20132;-71
2022/09/03 09:32:16;;;;;;;14.50;4.28;;;;;;;37.59;42.01;97682.34;4892033;29;20060;-71
2022/09/03 09:35:17;;;;;;;13.43;4.35;;;;;;;37.63;43.13;97676.75;4893239;29;20063;-71
2022/09/03 09:38:12;;;;;;;10.98;4.03;;;;;;;37.70;40.24;97676.66;4886929;29;20045;-72
2022/09/03 09:40:49;;;;;;;16.45;4.72;;;;;;;37.49;41.86;97663.72;4880754;29;20052;-72
2022/09/03 09:43:46;;;;;;;15.45;4.70;;;;;;;37.66;40.87;97655.50;4883122;29;20521;-74
2022/09/03 09:46:24;;;;;;;15.02;4.68;;;;;;;37.55;40.07;97653.63;4880776;29;20063;-71
2022/09/03 09:49:38;;;;;;;13.63;4.20;;;;;;;37.48;40.91;97648.13;4881181;29;20053;-72
2022/09/03 09:52:16;;;;;;;13.60;4.20;;;;;;;37.60;39.89;97635.56;4883728;29;20068;-70
2022/09/03 09:55:14;;;;;;;15.63;4.22;;;;;;;37.79;39.63;97634.13;4884490;29;20056;-72
2022/09/03 09:58:17;;;;;;;13.02;3.72;;;;;;;37.52;40.22;97628.47;4883956;29;20049;-72
2022/09/03 10:01:11;;;;;;;12.43;3.95;;;;;;;37.45;41.65;97617.38;4883313;29;20426;-72
2022/09/03 10:04:21;;;;;;;11.88;4.07;;;;;;;37.32;40.28;97614.34;4878550;29;20566;-69
2022/09/03 10:07:30;;;;;;;8.98;3.90;;;;;;;37.21;40.05;97606.91;4852366;29;20561;-72
2022/09/03 10:10:19;;;;;;;11.43;3.75;;;;;;;37.21;43.71;97611.72;4854912;29;20063;-70
2022/09/03 10:13:16;;;;;;;10.52;4.18;;;;;;;37.17;42.16;97608.16;4867609;29;20072;-72
2022/09/03 10:16:14;;;;;;;23.40;4.60;;;;;;;37.26;42.73;97600.03;4870182;29;20700;-72
2022/09/03 10:19:10;;;;;;;14.48;4.63;;;;;;;37.25;42.52;97594.88;4855548;29;20478;-73
2022/09/03 10:22:18;;;;;;;14.48;4.45;;;;;;;37.26;41.87;97594.44;4866886;29;20059;-70
2022/09/03 10:25:03;;;;;;;8.85;3.95;;;;;;;37.43;41.66;97589.81;4865747;29;20041;-72
2022/09/03 10:27:53;;;;;;;22.40;4.93;;;;;;;37.53;41.40;97590.88;4874310;29;20084;-74
2022/09/03 10:30:50;;;;;;;16.60;5.85;;;;;;;37.26;42.94;97577.66;4875878;29;20382;-74
2022/09/03 10:34:02;;;;;;;9.18;4.40;;;;;;;37.63;41.14;97575.19;4867998;29;20045;-75
2022/09/03 10:37:46;;;;;;;14.35;5.00;;;;;;;37.53;44.89;97574.88;4853155;29;20053;-76
2022/09/03 10:40:36;;;;;;;19.63;6.13;;;;;;;37.33;43.25;97571.97;4797773;29;20057;-75
2022/09/03 10:43:52;;;;;;;16.40;6.25;;;;;;;37.19;44.54;97563.78;4793352;29;20054;-76
2022/09/03 10:47:08;;;;;;;16.20;6.35;;;;;;;37.10;43.64;97557.88;4853449;29;20053;-75
2022/09/03 10:50:25;;;;;;;17.67;6.35;;;;;;;37.31;46.13;97556.81;4854901;29;20083;-76
2022/09/03 10:53:33;;;;;;;18.05;6.72;;;;;;;37.36;43.31;97557.13;4853438;29;20711;-76
2022/09/03 10:56:36;;;;;;;17.92;6.38;;;;;;;37.29;44.17;97550.84;4863851;29;20494;-76
2022/09/03 10:59:35;;;;;;;15.63;6.67;;;;;;;37.22;43.63;97549.75;4890957;29;20063;-76
2022/09/03 11:02:59;;;;;;;20.58;7.28;;;;;;;37.17;46.36;97547.41;4891117;29;20421;-76
2022/09/03 11:06:05;;;;;;;19.40;6.38;;;;;;;37.34;44.22;97544.78;4863135;29;20048;-76
2022/09/03 11:08:54;;;;;;;19.95;6.00;;;;;;;37.38;45.20;97534.34;4891788;29;20048;-76
2022/09/03 11:11:59;;;;;;;21.25;5.85;;;;;;;37.35;43.16;97532.38;4891928;29;20048;-76
2022/09/03 11:14:56;;;;;;;22.13;7.07;;;;;;;37.36;42.84;97531.94;4877326;29;20048;-76
2022/09/03 11:18:28;;;;;;;20.70;6.65;;;;;;;37.43;43.39;97531.03;4891982;29;20060;-76
2022/09/03 11:21:15;;;;;;;17.70;6.07;;;;;;;37.43;43.29;97525.44;4891596;29;20476;-75
2022/09/03 11:24:19;;;;;;;19.50;6.60;;;;;;;37.18;44.79;97521.00;4891027;29;20116;-76
2022/09/03 11:27:08;;;;;;;18.83;6.13;;;;;;;37.09;44.20;97523.53;4874492;29;20105;-76
2022/09/03 11:30:12;;;;;;;26.15;6.35;;;;;;;36.67;43.60;97522.88;4872599;29;20117;-76
2022/09/03 11:32:55;;;;;;;18.02;5.75;;;;;;;36.78;43.75;97515.16;4872016;29;20380;-75
2022/09/03 11:35:51;;;;;;;18.58;5.85;;;;;;;36.97;44.58;97524.06;4874772;29;20075;-75
2022/09/03 11:38:30;;;;;;;23.70;6.35;;;;;;;36.99;44.80;97522.47;4877614;29;20056;-76
2022/09/03 11:41:21;;;;;;;15.25;5.53;;;;;;;36.90;45.01;97519.38;4872467;29;20064;-74
2022/09/03 11:44:27;;;;;;;13.90;6.00;;;;;;;36.80;44.81;97521.09;4872224;29;20117;-76
2022/09/03 11:47:22;;;;;;;18.73;5.95;;;;;;;36.73;44.75;97518.41;4872584;29;20131;-75
2022/09/03 11:50:14;;;;;;;20.98;6.07;;;;;;;36.72;44.44;97516.78;4870352;29;20060;-75
2022/09/03 11:53:15;;;;;;;9.70;6.22;;;;;;;36.83;47.52;97517.44;4857189;29;20106;-75
2022/09/03 11:56:25;;;;;;;15.13;5.35;;;;;;;36.79;46.21;97516.72;4854018;29;20162;-75
2022/09/03 11:59:14;;;;;;;20.83;5.47;;;;;;;36.78;46.67;97515.16;4852657;29;20065;-73
2022/09/03 12:02:28;;;;;;;14.95;5.05;;;;;;;36.79;45.80;97522.31;4853619;29;20041;-73
2022/09/03 12:05:21;;;;;;;15.52;5.22;;;;;;;36.77;45.70;97516.34;4851520;29;20152;-74
2022/09/03 12:08:25;;;;;;;16.80;5.10;;;;;;;36.76;45.57;97511.16;4832330;29;20053;-74
2022/09/03 12:11:31;;;;;;;9.73;4.15;;;;;;;36.62;45.73;97506.53;4878494;29;20059;-70
2022/09/03 12:14:26;;;;;;;13.20;4.93;;;;;;;36.55;46.15;97501.00;4873230;29;20117;-70
2022/09/03 12:17:30;;;;;;;16.17;4.55;;;;;;;36.67;46.77;97502.47;4869830;29;20045;-72
2022/09/03 12:20:23;;;;;;;15.80;4.90;;;;;;;36.53;47.76;97495.03;4870807;29;20068;-72
2022/09/03 12:23:06;;;;;;;18.55;4.75;;;;;;;36.56;48.22;97502.59;4869749;29;20478;-71
2022/09/03 12:25:58;;;;;;;14.65;4.88;;;;;;;36.41;47.44;97504.75;4871392;29;20443;-69
2022/09/03 12:28:51;;;;;;;14.05;5.00;;;;;;;36.59;46.16;97496.16;4872188;29;20057;-69
2022/09/03 12:31:55;;;;;;;13.52;4.15;;;;;;;36.56;47.13;97497.81;4872364;29;20068;-70
2022/09/03 12:34:37;;;;;;;21.23;5.45;;;;;;;36.28;46.73;97504.50;4880964;29;20500;-70
2022/09/03 12:37:29;;;;;;;12.88;3.83;;;;;;;36.19;46.75;97495.81;4874504;29;20045;-70
2022/09/03 12:40:42;;;;;;;21.45;4.55;;;;;;;36.21;46.49;97493.41;4857790;29;20053;-69
2022/09/03 12:43:44;;;;;;;16.52;4.68;;;;;;;36.25;45.82;97480.22;4857140;29;20059;-71
2022/09/03 12:46:33;;;;;;;16.38;4.25;;;;;;;35.92;48.39;97487.28;4856416;29;20053;-70
2022/09/03 12:49:21;;;;;;;25.67;5.50;;;;;;;36.17;47.22;97487.06;4856787;29;20708;-70
2022/09/03 12:52:19;;;;;;;16.50;4.80;;;;;;;36.02;48.63;97484.41;4856703;29;20064;-74
2022/09/03 12:55:36;;;;;;;15.68;5.45;;;;;;;36.22;48.74;97478.22;4856429;29;20045;-70
2022/09/03 12:58:34;;;;;;;14.65;4.85;;;;;;;36.19;48.79;97490.22;4874174;29;20156;-73
2022/09/03 13:01:21;;;;;;;20.08;5.50;;;;;;;36.20;49.05;97480.66;4875984;29;20511;-72
2022/09/03 13:04:15;;;;;;;22.55;5.22;;;;;;;36.12;48.95;97484.72;4869481;29;20049;-72
2022/09/03 13:07:12;;;;;;;16.42;5.45;;;;;;;35.96;48.67;97488.84;4856334;29;20164;-72
2022/09/03 13:10:04;;;;;;;16.30;5.72;;;;;;;35.90;49.38;97490.47;4843081;29;20054;-74
2022/09/03 13:12:53;;;;;;;16.35;6.70;;;;;;;35.98;48.46;97486.44;4855832;29;20618;-74
2022/09/03 13:15:35;;;;;;;15.52;5.00;;;;;;;35.84;49.54;97492.94;4869198;29;20115;-75
2022/09/03 13:18:38;;;;;;;18.80;6.00;;;;;;;35.87;50.19;97494.13;4871112;29;20125;-75
2022/09/03 13:21:37;;;;;;;21.00;5.75;;;;;;;35.99;49.52;97487.22;4873255;29;20057;-74
2022/09/03 13:24:57;;;;;;;16.13;5.80;;;;;;;35.67;50.58;97491.88;4873577;29;20497;-74
2022/09/03 13:27:43;;;;;;;14.25;5.80;;;;;;;35.79;49.68;97487.81;4841908;29;20719;-75
2022/09/03 13:30:52;;;;;;;17.80;6.07;;;;;;;35.74;50.77;97493.03;4856264;29;20106;-75